Time;durP1;ratioP1;P1;durP2;ratioP2;P2;SDS_P1;SDS_P2;PMS_P1;PMS_P2;Temp;Humidity;BMP_temperature;BMP_pressure;BME280_temperature;BME280_humidity;BME280_pressure;Samples;Min_cycle;Max_cycle;Signal;HPM_P1;HPM_P2
2023/12/20 00:01:51;;;;;;;12.85;4.05;;;7.20;99.90;;;;;;5026134;28;20465;-93
2023/12/20 00:04:17;;;;;;;13.45;4.93;;;7.20;99.90;;;;;;5034423;28;20096;-93
2023/12/20 00:06:42;;;;;;;14.50;6.47;;;7.10;99.90;;;;;;5040777;28;20013;-94
2023/12/20 00:09:08;;;;;;;11.50;3.05;;;7.00;99.90;;;;;;5025797;28;20047;-94
2023/12/20 00:11:34;;;;;;;15.57;3.08;;;;;;;;;;5025681;28;20071;-92
2023/12/20 00:14:00;;;;;;;7.07;2.90;;;6.90;99.90;;;;;;5035027;28;20217;-92
2023/12/20 00:16:26;;;;;;;17.23;4.85;;;;;;;;;;5045091;28;20052;-91
2023/12/20 00:18:52;;;;;;;10.73;5.18;;;6.70;99.90;;;;;;5042193;28;20029;-91
2023/12/20 00:21:18;;;;;;;10.57;3.30;;;;;;;;;;5045240;28;20021;-92
2023/12/20 00:23:45;;;;;;;4.85;2.65;;;;;;;;;;5060543;28;20044;-92
2023/12/20 00:26:10;;;;;;;4.10;2.60;;;6.50;99.90;;;;;;5044872;28;20020;-94
2023/12/20 00:28:37;;;;;;;4.90;3.33;;;;;;;;;;5049169;28;20021;-92
2023/12/20 00:31:04;;;;;;;11.70;2.78;;;6.30;99.90;;;;;;5062398;28;20298;-93
2023/12/20 00:33:30;;;;;;;6.22;2.47;;;6.30;99.90;;;;;;5056474;28;20022;-93
2023/12/20 00:35:56;;;;;;;3.28;1.95;;;6.30;99.90;;;;;;5026166;28;20040;-92
2023/12/20 00:38:23;;;;;;;12.65;3.67;;;;;;;;;;5025280;28;20097;-93
2023/12/20 00:40:49;;;;;;;7.90;3.97;;;6.30;99.90;;;;;;5025455;28;20021;-93
2023/12/20 00:43:15;;;;;;;6.55;2.33;;;6.30;99.90;;;;;;5054216;28;20024;-94
2023/12/20 00:45:41;;;;;;;9.73;2.30;;;6.20;99.90;;;;;;5060246;28;20021;-93
2023/12/20 00:48:07;;;;;;;7.55;2.90;;;6.40;99.90;;;;;;5060367;28;20341;-91
2023/12/20 00:50:33;;;;;;;5.97;1.98;;;;;;;;;;5078286;28;20024;-92
2023/12/20 00:52:59;;;;;;;3.33;1.77;;;6.20;99.90;;;;;;5061118;28;20032;-92
2023/12/20 00:55:25;;;;;;;14.88;2.60;;;6.10;99.90;;;;;;5062165;28;20025;-92
2023/12/20 00:57:51;;;;;;;4.22;2.58;;;6.10;99.90;;;;;;5078450;28;20032;-91
2023/12/20 01:00:17;;;;;;;8.85;2.25;;;6.20;99.90;;;;;;5072620;28;20025;-91
2023/12/20 01:02:42;;;;;;;4.68;2.55;;;5.90;99.90;;;;;;5061596;28;20028;-92
2023/12/20 01:05:09;;;;;;;3.05;1.95;;;6.00;99.90;;;;;;5043528;28;20021;-93
2023/12/20 01:07:35;;;;;;;14.20;2.60;;;5.90;99.90;;;;;;5061523;28;20027;-92
2023/12/20 01:10:01;;;;;;;13.20;4.03;;;5.80;99.90;;;;;;5061667;28;20032;-91
2023/12/20 01:12:27;;;;;;;5.65;2.70;;;;;;;;;;5061106;28;20149;-90
2023/12/20 01:14:53;;;;;;;9.45;2.25;;;5.80;99.90;;;;;;5056546;28;20242;-90
2023/12/20 01:17:19;;;;;;;4.72;2.45;;;5.80;99.90;;;;;;5057231;28;20026;-91
2023/12/20 01:19:45;;;;;;;13.73;4.45;;;;;;;;;;5065021;28;20028;-90
2023/12/20 01:22:11;;;;;;;13.23;4.18;;;5.80;99.90;;;;;;5081519;28;20021;-91
2023/12/20 01:24:37;;;;;;;6.40;2.15;;;;;;;;;;5048134;28;20040;-91
2023/12/20 01:27:03;;;;;;;8.80;3.83;;;5.70;99.90;;;;;;5047927;28;20025;-91
2023/12/20 01:29:29;;;;;;;3.92;2.72;;;;;;;;;;5065540;28;20051;-92
2023/12/20 01:31:55;;;;;;;5.22;1.90;;;5.70;99.90;;;;;;5082592;28;20017;-91
2023/12/20 01:34:21;;;;;;;9.73;4.18;;;;;;;;;;5047715;28;20037;-90
2023/12/20 01:36:47;;;;;;;9.68;2.10;;;6.20;99.90;;;;;;5047882;28;20013;-91
2023/12/20 01:39:13;;;;;;;6.03;2.45;;;;;;;;;;5062844;28;20024;-91
2023/12/20 01:41:39;;;;;;;5.35;3.95;;;5.60;99.90;;;;;;5081474;28;20024;-90
2023/12/20 01:44:05;;;;;;;13.07;3.08;;;;;;;;;;5064180;28;20021;-92
2023/12/20 01:46:32;;;;;;;11.00;4.78;;;;;;;;;;5081410;28;20017;-92
2023/12/20 01:48:57;;;;;;;10.07;4.30;;;5.60;99.90;;;;;;5081881;28;20085;-92
2023/12/20 01:51:24;;;;;;;4.60;3.30;;;;;;;;;;5081168;28;20017;-91
2023/12/20 01:53:50;;;;;;;8.85;2.47;;;5.50;99.90;;;;;;5054652;28;20034;-91
2023/12/20 01:56:17;;;;;;;9.05;3.88;;;5.60;99.90;;;;;;5046631;28;20045;-92
2023/12/20 01:58:47;;;;;;;5.97;2.70;;;5.60;99.90;;;;;;5064909;28;20318;-91
2023/12/20 02:01:13;;;;;;;7.47;3.13;;;6.00;99.90;;;;;;5081261;28;20039;-92
2023/12/20 02:03:42;;;;;;;6.03;3.40;;;5.60;99.90;;;;;;5056462;28;20290;-92
2023/12/20 02:06:09;;;;;;;8.30;2.90;;;5.70;99.90;;;;;;5044540;28;20271;-91
2023/12/20 02:08:35;;;;;;;8.15;3.65;;;5.80;99.90;;;;;;5026973;28;20021;-91
2023/12/20 02:11:01;;;;;;;7.30;2.95;;;5.70;99.90;;;;;;5027808;28;20115;-91
2023/12/20 02:13:27;;;;;;;12.00;4.57;;;5.80;99.90;;;;;;5032461;28;20041;-92
2023/12/20 02:15:54;;;;;;;6.88;4.25;;;5.80;99.90;;;;;;5064393;28;20025;-91
2023/12/20 02:18:20;;;;;;;11.63;3.35;;;5.70;99.90;;;;;;5063718;28;20059;-91
2023/12/20 02:20:46;;;;;;;16.83;4.97;;;5.70;99.90;;;;;;5047683;28;20021;-92
2023/12/20 02:23:12;;;;;;;6.82;3.50;;;;;;;;;;5081119;28;20082;-92
2023/12/20 02:25:38;;;;;;;8.00;3.55;;;5.90;99.90;;;;;;5080088;28;20021;-92
2023/12/20 02:28:05;;;;;;;8.38;4.95;;;;;;;;;;5047676;28;20031;-93
2023/12/20 02:30:30;;;;;;;9.18;4.57;;;5.80;99.90;;;;;;5046469;28;20214;-91
2023/12/20 02:32:57;;;;;;;6.55;2.90;;;5.80;99.90;;;;;;5031881;28;20031;-91
2023/12/20 02:35:23;;;;;;;5.57;4.10;;;;;;;;;;5047871;28;20363;-90
2023/12/20 02:37:49;;;;;;;13.68;4.60;;;5.70;99.90;;;;;;5047619;28;20202;-92
2023/12/20 02:40:15;;;;;;;4.07;3.70;;;5.70;99.90;;;;;;5064151;28;20016;-90
2023/12/20 02:42:40;;;;;;;11.70;4.28;;;5.50;99.90;;;;;;5047312;28;20027;-91
2023/12/20 02:45:07;;;;;;;13.82;4.03;;;5.60;99.90;;;;;;5043896;28;20101;-90
2023/12/20 02:47:33;;;;;;;21.85;4.70;;;5.50;99.90;;;;;;5045382;28;20017;-91
2023/12/20 02:49:59;;;;;;;14.55;4.72;;;;;;;;;;5043718;28;20397;-90
2023/12/20 02:52:25;;;;;;;5.88;3.17;;;5.40;99.90;;;;;;5043008;28;20037;-89
2023/12/20 02:54:51;;;;;;;5.22;4.63;;;5.20;99.90;;;;;;5046078;28;20037;-89
2023/12/20 02:57:17;;;;;;;8.05;4.85;;;;;;;;;;5059085;28;20022;-90
2023/12/20 02:59:43;;;;;;;10.82;5.03;;;5.40;99.90;;;;;;5063254;28;20310;-90
2023/12/20 03:02:08;;;;;;;11.88;6.03;;;5.40;99.90;;;;;;5063471;28;20013;-91
2023/12/20 03:04:35;;;;;;;16.10;4.75;;;5.40;99.90;;;;;;5045943;28;20229;-91
2023/12/20 03:07:01;;;;;;;6.45;4.15;;;5.40;99.90;;;;;;5062750;28;20368;-91
2023/12/20 03:09:27;;;;;;;13.73;3.55;;;5.40;99.90;;;;;;5063185;28;20017;-91
2023/12/20 03:11:53;;;;;;;4.82;4.15;;;;;;;;;;5062285;28;20033;-92
2023/12/20 03:14:19;;;;;;;7.93;4.85;;;5.50;99.90;;;;;;5061969;28;20103;-90
2023/12/20 03:16:51;;;;;;;11.70;5.13;;;5.60;99.90;;;;;;5063557;28;20043;-90
2023/12/20 03:19:19;;;;;;;11.55;4.78;;;5.50;99.90;;;;;;5063077;28;20032;-92
2023/12/20 03:21:45;;;;;;;15.77;5.47;;;5.50;99.90;;;;;;5063352;28;20017;-91
2023/12/20 03:24:11;;;;;;;6.68;5.20;;;;;;;;;;5075677;28;20083;-91
2023/12/20 03:26:37;;;;;;;14.38;7.38;;;5.50;99.90;;;;;;5079918;28;20021;-90
2023/12/20 03:29:02;;;;;;;9.18;5.13;;;5.50;99.90;;;;;;5099702;28;20343;-91
2023/12/20 03:31:28;;;;;;;10.60;5.60;;;5.50;99.90;;;;;;5078295;28;20068;-91
2023/12/20 03:33:54;;;;;;;21.80;5.18;;;5.60;99.90;;;;;;5061656;28;20078;-90
2023/12/20 03:36:20;;;;;;;11.98;5.15;;;;;;;;;;5062534;28;20049;-89
2023/12/20 03:38:46;;;;;;;12.40;4.82;;;5.50;99.90;;;;;;5069060;28;20286;-91
2023/12/20 03:41:12;;;;;;;12.57;7.57;;;5.50;99.90;;;;;;5061753;28;20021;-90
2023/12/20 03:43:38;;;;;;;18.80;7.05;;;5.40;99.90;;;;;;5058576;28;20024;-90
2023/12/20 03:46:04;;;;;;;15.65;5.00;;;;;;;;;;5060503;28;20244;-92
2023/12/20 03:48:33;;;;;;;11.95;6.28;;;5.60;99.90;;;;;;5098933;28;20205;-92
2023/12/20 03:50:59;;;;;;;15.60;6.65;;;5.60;99.90;;;;;;5082452;28;20024;-91
2023/12/20 03:53:25;;;;;;;15.55;6.63;;;;;;;;;;5088591;28;20078;-92
2023/12/20 03:55:52;;;;;;;15.85;7.45;;;5.50;99.90;;;;;;5041640;28;20032;-90
2023/12/20 03:58:18;;;;;;;20.83;8.60;;;;;;;;;;5058645;28;20093;-90
2023/12/20 04:00:44;;;;;;;19.58;6.95;;;5.50;99.90;;;;;;5058324;28;20017;-90
2023/12/20 04:03:13;;;;;;;13.20;6.45;;;;;;;;;;5058704;28;20028;-91
2023/12/20 04:05:42;;;;;;;10.88;5.60;;;5.60;99.90;;;;;;5025711;28;20088;-91
2023/12/20 04:08:09;;;;;;;6.57;4.95;;;;;;;;;;5048753;28;20044;-91
2023/12/20 04:10:34;;;;;;;12.75;6.60;;;5.50;99.90;;;;;;5037651;28;20318;-90
2023/12/20 04:13:00;;;;;;;12.18;5.70;;;5.40;99.90;;;;;;5042630;28;20052;-91
2023/12/20 04:15:26;;;;;;;11.52;7.45;;;;;;;;;;5050284;28;20017;-91
2023/12/20 04:17:52;;;;;;;23.48;6.53;;;5.60;99.90;;;;;;5062414;28;20048;-91
2023/12/20 04:20:18;;;;;;;23.33;6.15;;;5.70;99.90;;;;;;5055262;28;20191;-91
2023/12/20 04:22:45;;;;;;;11.90;6.45;;;;;;;;;;5062456;28;20033;-91
2023/12/20 04:25:11;;;;;;;8.00;6.78;;;;;;;;;;5061304;28;20017;-91
2023/12/20 04:27:37;;;;;;;9.88;6.32;;;5.60;99.90;;;;;;5063344;28;20021;-92
2023/12/20 04:30:03;;;;;;;13.30;7.43;;;5.60;99.90;;;;;;5029193;28;20028;-92
2023/12/20 04:32:29;;;;;;;7.57;4.63;;;;;;;;;;5060988;28;20043;-90
2023/12/20 04:34:55;;;;;;;8.18;4.63;;;5.80;99.90;;;;;;5041248;28;20314;-90
2023/12/20 04:37:22;;;;;;;12.50;5.45;;;5.80;99.90;;;;;;5061950;28;20020;-90
2023/12/20 04:39:48;;;;;;;7.68;4.82;;;;;;;;;;5061240;28;20314;-91
2023/12/20 04:42:14;;;;;;;13.30;4.35;;;5.90;99.90;;;;;;5060827;28;20020;-91
2023/12/20 04:44:40;;;;;;;21.10;6.00;;;5.80;99.90;;;;;;5076793;28;20036;-92
2023/12/20 04:47:06;;;;;;;13.02;5.13;;;5.80;99.90;;;;;;5044571;28;20024;-92
2023/12/20 04:49:32;;;;;;;17.48;5.55;;;;;;;;;;5044778;28;20029;-93
2023/12/20 04:51:58;;;;;;;7.05;3.42;;;5.80;99.90;;;;;;5074552;28;20025;-91
2023/12/20 04:54:24;;;;;;;4.68;3.70;;;;;;;;;;5058008;28;20101;-91
2023/12/20 04:56:50;;;;;;;14.02;5.00;;;6.00;99.90;;;;;;5065870;28;20021;-91
2023/12/20 04:59:16;;;;;;;12.85;3.78;;;;;;;;;;5049355;28;20095;-92
2023/12/20 05:01:42;;;;;;;14.00;5.97;;;6.00;99.90;;;;;;5064034;28;20052;-91
2023/12/20 05:04:08;;;;;;;13.20;4.78;;;6.10;99.90;;;;;;5057418;28;20067;-93
2023/12/20 05:06:34;;;;;;;9.43;4.00;;;6.10;99.90;;;;;;5033023;28;20214;-90
2023/12/20 05:09:00;;;;;;;14.38;4.50;;;;;;;;;;5048897;28;20020;-90
2023/12/20 05:11:26;;;;;;;18.20;6.30;;;6.10;99.90;;;;;;5047316;28;20028;-90
2023/12/20 05:13:52;;;;;;;22.33;5.00;;;6.10;99.90;;;;;;5045899;28;20091;-90
2023/12/20 05:16:18;;;;;;;7.93;4.68;;;6.10;99.90;;;;;;5048955;28;20021;-90
2023/12/20 05:18:45;;;;;;;8.25;4.63;;;6.10;99.90;;;;;;5081117;28;20039;-90
2023/12/20 05:21:11;;;;;;;13.60;7.60;;;6.20;99.90;;;;;;5081648;28;20044;-91
2023/12/20 05:23:46;;;;;;;5.45;4.50;;;6.10;99.90;;;;;;5035302;28;20071;-90
2023/12/20 05:26:12;;;;;;;10.20;4.95;;;6.20;99.90;;;;;;5048714;28;20025;-89
2023/12/20 05:28:38;;;;;;;10.70;6.00;;;6.20;99.90;;;;;;5048341;28;20199;-91
2023/12/20 05:31:04;;;;;;;5.85;3.78;;;6.20;99.90;;;;;;5064084;28;20017;-90
2023/12/20 05:33:30;;;;;;;14.15;5.55;;;;;;;;;;5052948;28;20051;-89
2023/12/20 05:35:56;;;;;;;21.00;4.28;;;6.20;99.90;;;;;;5087706;28;20025;-89
2023/12/20 05:38:22;;;;;;;12.88;5.07;;;;;;;;;;5062006;28;20207;-92
2023/12/20 05:40:48;;;;;;;16.65;6.30;;;6.50;99.90;;;;;;5076460;28;20079;-90
2023/12/20 05:43:14;;;;;;;10.80;4.85;;;6.20;99.90;;;;;;5060871;28;20219;-90
2023/12/20 05:45:40;;;;;;;16.42;5.22;;;;;;;;;;5040834;28;20265;-90
2023/12/20 05:48:06;;;;;;;11.98;5.32;;;6.20;99.90;;;;;;5041926;28;20336;-91
2023/12/20 05:50:32;;;;;;;6.90;4.88;;;6.10;99.90;;;;;;5059211;28;20083;-90
2023/12/20 05:52:58;;;;;;;10.80;3.63;;;;;;;;;;5063970;28;20221;-91
2023/12/20 05:55:24;;;;;;;11.23;5.10;;;6.00;99.90;;;;;;5064746;28;20029;-91
2023/12/20 05:57:50;;;;;;;20.10;5.50;;;5.90;99.90;;;;;;5041800;28;20120;-90
2023/12/20 06:00:16;;;;;;;6.85;4.32;;;5.90;99.90;;;;;;5063631;28;20013;-92
2023/12/20 06:02:42;;;;;;;12.75;4.32;;;5.70;99.90;;;;;;5051157;28;20017;-90
2023/12/20 06:05:08;;;;;;;10.13;5.03;;;5.80;99.90;;;;;;5062374;28;20013;-91
2023/12/20 06:07:34;;;;;;;13.18;4.03;;;5.70;99.90;;;;;;5072449;28;20062;-90
2023/12/20 06:10:00;;;;;;;12.38;3.95;;;5.70;99.90;;;;;;5057061;28;20017;-91
2023/12/20 06:12:28;;;;;;;5.93;4.05;;;5.70;99.90;;;;;;5028907;28;20079;-91
2023/12/20 06:14:54;;;;;;;12.52;5.18;;;5.60;99.90;;;;;;5045013;28;20293;-92
2023/12/20 06:17:19;;;;;;;9.35;4.03;;;5.60;99.90;;;;;;5046026;28;20013;-90
2023/12/20 06:19:48;;;;;;;10.98;5.68;;;5.50;99.90;;;;;;5031455;28;20271;-88
2023/12/20 06:22:17;;;;;;;13.68;6.80;;;5.50;99.90;;;;;;5054483;28;20021;-88
2023/12/20 06:24:43;;;;;;;10.37;5.13;;;5.50;99.90;;;;;;5077093;28;20028;-88
2023/12/20 06:27:08;;;;;;;16.40;5.82;;;5.50;99.90;;;;;;5033260;28;20067;-89
2023/12/20 06:29:34;;;;;;;12.57;5.22;;;5.40;99.90;;;;;;5061772;28;20079;-88
2023/12/20 06:32:00;;;;;;;9.50;4.28;;;5.40;99.90;;;;;;5065952;28;20285;-88
2023/12/20 06:34:26;;;;;;;14.40;5.32;;;5.50;99.90;;;;;;5052934;28;20518;-89
2023/12/20 06:36:52;;;;;;;8.50;4.35;;;5.50;99.90;;;;;;5045821;28;20017;-89
2023/12/20 06:39:17;;;;;;;16.60;5.65;;;5.40;99.90;;;;;;5062012;28;20087;-87
2023/12/20 06:41:43;;;;;;;6.93;4.45;;;5.40;99.90;;;;;;5056699;28;20049;-88
2023/12/20 06:44:09;;;;;;;23.58;4.47;;;5.40;99.90;;;;;;5057184;28;20241;-88
2023/12/20 06:46:35;;;;;;;12.75;5.18;;;5.30;99.90;;;;;;5062458;28;20063;-88
2023/12/20 06:49:01;;;;;;;11.07;5.13;;;5.30;99.90;;;;;;5075691;28;20016;-89
2023/12/20 06:51:26;;;;;;;13.82;6.07;;;5.30;99.90;;;;;;5073623;28;20361;-89
2023/12/20 06:53:52;;;;;;;13.18;5.05;;;5.30;99.90;;;;;;5059061;28;20029;-89
2023/12/20 06:56:18;;;;;;;16.02;5.32;;;5.20;99.90;;;;;;5035026;28;20021;-88
2023/12/20 06:58:44;;;;;;;14.25;5.72;;;5.20;99.90;;;;;;5061728;28;20020;-88
2023/12/20 07:01:14;;;;;;;16.70;5.45;;;5.20;99.90;;;;;;5041752;28;20051;-88
2023/12/20 07:03:41;;;;;;;15.30;5.45;;;5.20;99.90;;;;;;5078724;28;20298;-88
2023/12/20 07:06:08;;;;;;;10.18;5.32;;;5.20;99.90;;;;;;5063046;28;20028;-89
2023/12/20 07:08:33;;;;;;;12.48;5.53;;;5.60;99.90;;;;;;5079786;28;20025;-89
2023/12/20 07:10:59;;;;;;;6.03;3.78;;;5.10;99.90;;;;;;5061265;28;20032;-89
2023/12/20 07:13:25;;;;;;;14.25;5.03;;;5.10;99.90;;;;;;5077126;28;20025;-90
2023/12/20 07:15:51;;;;;;;6.97;4.55;;;5.10;99.90;;;;;;5078429;28;20025;-90
2023/12/20 07:18:17;;;;;;;23.45;4.45;;;6.80;99.90;;;;;;5044849;28;20225;-89
2023/12/20 07:20:43;;;;;;;14.00;5.28;;;5.10;99.90;;;;;;5062106;28;20024;-89
2023/12/20 07:23:09;;;;;;;19.42;7.97;;;5.20;99.90;;;;;;5060421;28;20052;-88
2023/12/20 07:25:35;;;;;;;11.25;5.75;;;5.10;99.90;;;;;;5044739;28;20013;-88
2023/12/20 07:28:00;;;;;;;18.77;5.55;;;6.70;99.90;;;;;;5061729;28;20044;-89
2023/12/20 07:30:26;;;;;;;10.90;4.28;;;5.00;99.90;;;;;;5034803;28;20534;-90
2023/12/20 07:32:52;;;;;;;27.60;7.03;;;;;;;;;;5061953;28;20238;-88
2023/12/20 07:35:18;;;;;;;14.48;7.57;;;5.10;99.90;;;;;;5045609;28;20025;-88
2023/12/20 07:37:45;;;;;;;13.15;6.50;;;;;;;;;;5062468;28;20031;-88
2023/12/20 07:40:11;;;;;;;14.73;7.85;;;5.10;99.90;;;;;;5042213;28;20025;-89
2023/12/20 07:42:36;;;;;;;9.07;7.05;;;5.10;99.90;;;;;;5045715;28;20021;-88
2023/12/20 07:45:03;;;;;;;14.68;9.77;;;5.20;99.90;;;;;;5061189;28;20096;-88
2023/12/20 07:47:29;;;;;;;17.35;7.28;;;5.20;99.90;;;;;;5061966;28;20051;-87
2023/12/20 07:49:54;;;;;;;10.15;6.72;;;5.20;99.90;;;;;;5045882;28;20021;-88
2023/12/20 07:52:22;;;;;;;11.43;5.00;;;5.20;99.90;;;;;;5061314;28;20021;-88
2023/12/20 07:54:48;;;;;;;7.90;4.95;;;5.20;99.90;;;;;;5051171;28;20086;-90
2023/12/20 07:57:14;;;;;;;22.70;6.90;;;5.30;99.90;;;;;;5062224;28;20024;-88
2023/12/20 07:59:39;;;;;;;15.48;6.78;;;5.20;99.90;;;;;;5029000;28;20027;-89
2023/12/20 08:02:06;;;;;;;12.93;4.72;;;5.30;99.90;;;;;;5045714;28;20344;-90
2023/12/20 08:04:32;;;;;;;7.43;3.60;;;5.30;99.90;;;;;;5061135;28;20017;-89
2023/12/20 08:06:58;;;;;;;18.58;6.50;;;5.40;99.90;;;;;;5061728;28;20021;-90
2023/12/20 08:09:24;;;;;;;10.65;5.88;;;5.50;99.90;;;;;;5045381;28;20063;-89
2023/12/20 08:11:50;;;;;;;17.05;4.25;;;5.60;99.90;;;;;;5078643;28;20025;-89
2023/12/20 08:14:16;;;;;;;13.32;4.88;;;5.60;99.90;;;;;;5044694;28;20036;-89
2023/12/20 08:16:42;;;;;;;3.78;3.47;;;5.70;99.90;;;;;;5063388;28;20024;-88
2023/12/20 08:19:07;;;;;;;10.73;5.72;;;5.70;99.90;;;;;;5045663;28;20044;-88
2023/12/20 08:21:34;;;;;;;11.50;4.32;;;5.70;99.90;;;;;;5061335;28;20028;-89
2023/12/20 08:24:00;;;;;;;14.23;4.93;;;5.80;99.90;;;;;;5051117;28;20059;-89
2023/12/20 08:26:26;;;;;;;7.43;5.20;;;5.80;99.90;;;;;;5042475;28;20026;-90
2023/12/20 08:28:52;;;;;;;23.02;5.82;;;5.70;99.90;;;;;;5039472;28;20092;-89
2023/12/20 08:31:18;;;;;;;9.05;5.00;;;5.80;99.90;;;;;;5061140;28;20028;-89
2023/12/20 08:33:46;;;;;;;10.95;4.70;;;5.80;99.90;;;;;;5057612;28;20040;-89
2023/12/20 08:36:12;;;;;;;17.90;4.78;;;5.90;99.90;;;;;;5061474;28;20025;-90
2023/12/20 08:38:38;;;;;;;15.43;4.57;;;5.90;99.90;;;;;;5062375;28;20228;-90
2023/12/20 08:41:07;;;;;;;16.90;5.82;;;6.00;99.90;;;;;;5061438;28;20048;-89
2023/12/20 08:43:36;;;;;;;20.97;4.23;;;6.00;99.90;;;;;;5061057;28;20307;-90
2023/12/20 08:46:02;;;;;;;7.00;3.42;;;6.00;99.90;;;;;;5061016;28;20024;-88
2023/12/20 08:48:28;;;;;;;13.32;4.75;;;6.00;99.90;;;;;;5060903;28;20013;-89
2023/12/20 08:50:54;;;;;;;11.38;4.55;;;6.30;99.90;;;;;;5061456;28;20306;-89
2023/12/20 08:53:20;;;;;;;9.90;4.88;;;6.10;99.90;;;;;;5023099;28;20048;-90
2023/12/20 08:55:47;;;;;;;7.43;3.95;;;6.20;99.90;;;;;;5040931;28;20045;-89
2023/12/20 08:58:13;;;;;;;8.40;5.00;;;6.20;99.90;;;;;;5040895;28;20048;-89
2023/12/20 09:00:38;;;;;;;18.10;5.78;;;6.20;99.90;;;;;;5034460;28;20035;-90
2023/12/20 09:03:05;;;;;;;11.57;4.45;;;6.50;99.90;;;;;;5076096;28;20021;-89
2023/12/20 09:05:31;;;;;;;10.18;4.70;;;6.50;99.90;;;;;;5076780;28;20385;-91
2023/12/20 09:07:57;;;;;;;9.02;5.55;;;6.20;99.90;;;;;;5060092;28;20028;-91
2023/12/20 09:10:22;;;;;;;10.25;5.07;;;6.20;99.90;;;;;;5076137;28;20614;-90
2023/12/20 09:12:50;;;;;;;14.75;6.50;;;6.30;99.90;;;;;;5060055;28;20041;-89
2023/12/20 09:15:16;;;;;;;5.15;3.88;;;6.30;99.90;;;;;;5076457;28;20021;-88
2023/12/20 09:17:43;;;;;;;9.13;4.95;;;6.30;99.90;;;;;;5042997;28;20013;-89
2023/12/20 09:20:09;;;;;;;18.92;7.38;;;6.30;99.90;;;;;;5059762;28;20017;-89
2023/12/20 09:22:35;;;;;;;8.70;3.75;;;6.30;99.90;;;;;;5044182;28;20032;-88
2023/12/20 09:25:02;;;;;;;20.42;6.22;;;6.30;99.90;;;;;;5042186;28;20024;-88
2023/12/20 09:27:27;;;;;;;18.15;6.63;;;6.40;99.90;;;;;;5024709;28;20018;-89
2023/12/20 09:29:53;;;;;;;10.52;7.03;;;6.50;99.90;;;;;;5049332;28;20025;-90
2023/12/20 09:32:22;;;;;;;10.10;4.68;;;6.60;99.90;;;;;;5061888;28;20028;-89
2023/12/20 09:34:48;;;;;;;8.70;5.80;;;6.50;99.90;;;;;;5075782;28;20021;-89
2023/12/20 09:37:14;;;;;;;15.52;7.97;;;6.50;99.90;;;;;;5058364;28;20041;-89
2023/12/20 09:39:40;;;;;;;12.07;7.03;;;6.50;99.90;;;;;;5062307;28;20013;-89
2023/12/20 09:42:07;;;;;;;10.35;5.75;;;6.60;99.90;;;;;;5047334;28;20025;-90
2023/12/20 09:44:36;;;;;;;20.45;6.28;;;6.60;99.90;;;;;;5063304;28;20025;-89
2023/12/20 09:47:04;;;;;;;24.38;8.90;;;6.70;99.90;;;;;;5047456;28;20045;-88
2023/12/20 09:49:30;;;;;;;9.02;4.25;;;6.80;99.90;;;;;;5081019;28;20360;-89
2023/12/20 09:51:56;;;;;;;14.25;6.28;;;6.80;99.90;;;;;;5042198;28;20040;-89
2023/12/20 09:54:23;;;;;;;17.55;5.97;;;6.80;99.90;;;;;;5050514;28;20034;-88
2023/12/20 09:56:50;;;;;;;13.65;5.70;;;6.80;99.90;;;;;;5026694;28;20017;-89
2023/12/20 09:59:16;;;;;;;22.02;4.97;;;6.80;99.90;;;;;;5063511;28;20024;-90
2023/12/20 10:01:43;;;;;;;8.85;4.40;;;6.80;99.90;;;;;;5030084;28;20017;-88
2023/12/20 10:04:14;;;;;;;17.33;6.55;;;6.80;99.90;;;;;;5062544;28;20021;-89
2023/12/20 10:06:41;;;;;;;14.75;7.28;;;6.80;99.90;;;;;;5080066;28;20017;-89
2023/12/20 10:09:07;;;;;;;13.15;6.40;;;6.80;99.90;;;;;;5063332;28;20017;-89
2023/12/20 10:11:37;;;;;;;18.02;7.68;;;6.90;99.90;;;;;;5079965;28;20028;-89
2023/12/20 10:14:03;;;;;;;18.35;5.15;;;6.90;99.90;;;;;;5068759;28;20095;-89
2023/12/20 10:16:30;;;;;;;17.58;5.95;;;7.00;99.90;;;;;;5045376;28;20017;-90
2023/12/20 10:18:56;;;;;;;8.68;5.25;;;6.90;99.90;;;;;;5063884;28;20024;-90
2023/12/20 10:21:24;;;;;;;12.02;6.47;;;7.20;99.90;;;;;;5080368;28;20032;-88
2023/12/20 10:23:50;;;;;;;24.67;6.75;;;7.00;99.90;;;;;;5063453;28;20032;-89
2023/12/20 10:26:21;;;;;;;8.88;6.25;;;7.00;99.90;;;;;;5062573;28;20032;-88
2023/12/20 10:28:49;;;;;;;21.23;7.57;;;7.10;99.90;;;;;;5066921;28;20041;-90
2023/12/20 10:31:29;;;;;;;10.88;6.22;;;6.90;99.90;;;;;;5052564;28;20017;-89
2023/12/20 10:34:00;;;;;;;9.02;3.92;;;7.00;99.90;;;;;;5062931;28;20041;-88
2023/12/20 10:36:29;;;;;;;5.70;3.55;;;7.10;99.90;;;;;;5079987;28;20029;-89
2023/12/20 10:38:57;;;;;;;12.13;6.43;;;7.00;99.90;;;;;;5046671;28;20074;-89
2023/12/20 10:41:29;;;;;;;19.85;5.22;;;7.10;99.90;;;;;;5079100;28;20527;-91
2023/12/20 10:44:00;;;;;;;8.18;4.80;;;7.10;99.90;;;;;;5047674;28;20032;-88
2023/12/20 10:46:29;;;;;;;12.15;4.90;;;7.10;99.90;;;;;;5061300;28;20028;-89
2023/12/20 10:48:57;;;;;;;13.45;3.35;;;7.10;99.90;;;;;;5045771;28;20094;-89
2023/12/20 10:51:26;;;;;;;10.95;5.03;;;7.10;99.90;;;;;;5061517;28;20107;-91
2023/12/20 10:53:53;;;;;;;5.38;4.18;;;7.20;99.90;;;;;;5050450;28;20056;-89
2023/12/20 10:56:26;;;;;;;7.40;4.10;;;7.20;99.90;;;;;;5048575;28;20021;-89
2023/12/20 10:58:52;;;;;;;13.68;4.22;;;7.20;99.90;;;;;;5099937;28;20029;-89
2023/12/20 11:01:19;;;;;;;10.80;7.40;;;7.20;99.90;;;;;;5075093;28;20037;-90
2023/12/20 11:03:49;;;;;;;6.32;3.88;;;7.20;99.90;;;;;;5045255;28;20016;-90
2023/12/20 11:06:34;;;;;;;15.20;5.30;;;7.20;99.90;;;;;;5066872;28;20029;-89
2023/12/20 11:09:27;;;;;;;9.80;4.95;;;7.20;99.90;;;;;;5049470;28;20021;-88
2023/12/20 11:12:18;;;;;;;8.55;5.65;;;7.20;99.90;;;;;;5045994;28;20361;-89
2023/12/20 11:14:48;;;;;;;10.77;5.10;;;7.20;99.90;;;;;;5044988;28;20104;-90
2023/12/20 11:17:16;;;;;;;14.40;4.65;;;7.30;99.90;;;;;;5046658;28;20032;-89
2023/12/20 11:19:57;;;;;;;7.82;4.93;;;7.30;99.90;;;;;;5064219;28;20027;-89
2023/12/20 11:22:29;;;;;;;12.70;6.43;;;7.30;99.90;;;;;;5046441;28;20108;-88
2023/12/20 11:25:02;;;;;;;12.23;4.45;;;7.30;99.90;;;;;;5067200;28;20021;-89
2023/12/20 11:27:28;;;;;;;9.90;4.47;;;7.10;99.90;;;;;;5068072;28;20031;-89
2023/12/20 11:29:56;;;;;;;15.48;5.75;;;7.20;99.90;;;;;;5046362;28;20017;-90
2023/12/20 11:32:28;;;;;;;6.07;4.13;;;7.20;99.90;;;;;;5062763;28;20365;-89
2023/12/20 11:34:58;;;;;;;13.48;5.38;;;7.20;99.90;;;;;;5046381;28;20025;-89
2023/12/20 11:37:33;;;;;;;;;;;7.30;99.90;;;;;;5046204;28;20059;-88
2023/12/20 11:40:09;;;;;;;19.90;5.00;;;7.20;99.90;;;;;;5062354;28;20242;-89
2023/12/20 11:42:41;;;;;;;13.57;4.75;;;7.30;99.90;;;;;;5045332;28;20045;-90
2023/12/20 11:45:24;;;;;;;5.45;3.35;;;7.30;99.90;;;;;;5042318;28;20033;-89
2023/12/20 11:47:51;;;;;;;6.80;4.00;;;7.30;99.90;;;;;;5025543;28;20231;-88
2023/12/20 11:50:17;;;;;;;14.07;6.38;;;7.30;99.90;;;;;;5042399;28;20183;-88
2023/12/20 11:52:43;;;;;;;9.35;4.70;;;7.30;99.90;;;;;;5078598;28;20024;-89
2023/12/20 11:55:09;;;;;;;8.65;4.10;;;7.30;99.90;;;;;;5037537;28;20013;-89
2023/12/20 11:57:36;;;;;;;11.60;3.78;;;7.30;99.90;;;;;;5045917;28;20090;-89
2023/12/20 12:00:03;;;;;;;8.52;4.20;;;7.30;99.90;;;;;;5045636;28;20059;-88
2023/12/20 12:02:37;;;;;;;5.18;4.45;;;7.30;99.90;;;;;;5062393;28;20032;-88
2023/12/20 12:05:05;;;;;;;10.75;5.15;;;7.40;99.90;;;;;;5043626;28;20028;-89
2023/12/20 12:07:31;;;;;;;15.07;5.43;;;7.30;99.90;;;;;;5053982;28;20078;-87
2023/12/20 12:09:58;;;;;;;7.88;3.92;;;7.30;99.90;;;;;;5099831;28;20027;-89
2023/12/20 12:12:25;;;;;;;5.97;3.95;;;7.40;99.90;;;;;;5082183;28;20092;-89
2023/12/20 12:14:51;;;;;;;19.17;6.13;;;7.40;99.90;;;;;;5059604;28;20210;-88
2023/12/20 12:17:17;;;;;;;11.75;4.53;;;7.40;99.90;;;;;;5062499;28;20080;-89
2023/12/20 12:19:43;;;;;;;10.75;6.95;;;7.40;99.90;;;;;;5062230;28;20034;-89
2023/12/20 12:22:13;;;;;;;11.50;5.32;;;7.40;99.90;;;;;;5062453;28;20227;-89
2023/12/20 12:24:40;;;;;;;;;;;7.30;99.90;;;;;;5061996;28;20076;-90
2023/12/20 12:27:09;;;;;;;7.32;4.78;;;7.40;99.90;;;;;;5045105;28;20063;-89
2023/12/20 12:29:36;;;;;;;6.57;4.13;;;7.30;99.90;;;;;;5068879;28;20025;-91
2023/12/20 12:32:08;;;;;;;6.07;5.38;;;7.30;99.90;;;;;;5041605;28;20275;-88
2023/12/20 12:34:35;;;;;;;15.68;6.57;;;7.30;99.90;;;;;;5056044;28;20287;-90
2023/12/20 12:37:03;;;;;;;13.52;4.60;;;7.30;99.90;;;;;;5061420;28;20017;-89
2023/12/20 12:39:29;;;;;;;9.60;6.15;;;7.30;99.90;;;;;;5045535;28;20017;-91
2023/12/20 12:41:56;;;;;;;11.10;8.60;;;7.40;99.90;;;;;;5060034;28;20024;-89
2023/12/20 12:44:23;;;;;;;21.40;8.02;;;7.30;99.90;;;;;;5060081;28;20047;-88
2023/12/20 12:46:53;;;;;;;14.77;9.77;;;7.30;99.90;;;;;;5044604;28;20096;-88
2023/12/20 12:49:21;;;;;;;32.42;17.20;;;7.40;99.90;;;;;;5062852;28;20031;-90
2023/12/20 12:51:47;;;;;;;23.08;14.95;;;7.40;99.90;;;;;;5045098;28;20021;-89
2023/12/20 12:54:15;;;;;;;25.23;15.90;;;;;;;;;;5061401;28;20104;-88
2023/12/20 12:56:41;;;;;;;26.73;13.98;;;7.60;99.90;;;;;;5036590;28;20010;-88
2023/12/20 12:59:07;;;;;;;18.15;11.70;;;7.90;99.90;;;;;;5041764;28;20025;-87
2023/12/20 13:01:33;;;;;;;27.38;10.63;;;7.70;99.90;;;;;;5041811;28;20017;-88
2023/12/20 13:04:01;;;;;;;25.35;13.45;;;7.80;99.90;;;;;;5050830;28;20017;-89